Time;durP1;ratioP1;P1;durP2;ratioP2;P2;SDS_P1;SDS_P2;PMS_P1;PMS_P2;Temp;Humidity;BMP_temperature;BMP_pressure;BME280_temperature;BME280_humidity;BME280_pressure;Samples;Min_cycle;Max_cycle;Signal;HPM_P1;HPM_P2
2023/05/09 04:06:05;;;;;;;8.23;5.68;;;;;;;11.76;57.94;101288.13;5612766;31;127487;-56
2023/05/09 04:09:08;;;;;;;6.95;5.30;;;;;;;11.76;57.94;101288.13;5598462;31;33238;-55
2023/05/09 04:12:13;;;;;;;10.43;5.43;;;;;;;11.47;64.47;101301.19;5583625;31;33239;-56
2023/05/09 04:15:16;;;;;;;8.55;5.78;;;;;;;11.51;55.46;101297.72;5583113;31;33200;-56
2023/05/09 04:18:19;;;;;;;7.72;5.55;;;;;;;11.48;68.82;101300.12;5583359;31;33122;-57
2023/05/09 04:21:21;;;;;;;8.43;4.82;;;;;;;11.61;71.66;101302.31;5583060;31;34175;-56
2023/05/09 04:24:23;;;;;;;9.02;5.37;;;;;;;11.64;62.26;101303.66;5583467;31;33283;-56
2023/05/09 04:27:26;;;;;;;7.20;5.28;;;;;;;11.65;73.21;101305.28;5583072;31;33626;-56
2023/05/09 04:30:29;;;;;;;9.07;5.75;;;;;;;11.63;55.51;101304.75;5583713;32;34344;-57
2023/05/09 04:33:32;;;;;;;8.05;5.72;;;;;;;11.76;64.80;101307.72;5583244;31;34211;-56
2023/05/09 04:36:35;;;;;;;6.60;5.00;;;;;;;11.66;57.31;101298.84;5583093;31;33471;-56
2023/05/09 04:39:38;;;;;;;8.10;5.32;;;;;;;11.73;57.36;101302.88;5582800;31;33659;-57
2023/05/09 04:42:41;;;;;;;7.40;4.70;;;;;;;11.98;62.02;101306.72;5583518;31;34694;-56
2023/05/09 04:45:44;;;;;;;9.07;5.87;;;;;;;11.99;56.70;101303.78;5582732;31;33530;-57
2023/05/09 04:48:47;;;;;;;6.43;5.12;;;;;;;11.74;54.99;101304.50;5583486;31;33830;-55
2023/05/09 04:51:52;;;;;;;7.47;5.35;;;;;;;12.01;63.00;101305.38;5583039;31;33474;-57
2023/05/09 04:54:54;;;;;;;9.90;6.55;;;;;;;12.11;58.64;101298.13;5583253;32;33692;-56
2023/05/09 04:57:57;;;;;;;7.55;5.32;;;;;;;12.01;63.83;101306.19;5582614;31;33155;-55
2023/05/09 05:00:59;;;;;;;7.82;4.93;;;;;;;12.09;54.98;101296.81;5583005;31;33763;-56
2023/05/09 05:04:01;;;;;;;7.12;4.72;;;;;;;12.02;53.42;101299.75;5582543;32;34029;-57
2023/05/09 05:07:04;;;;;;;6.57;5.05;;;;;;;12.13;61.03;101304.06;5580920;31;33395;-56
2023/05/09 05:10:08;;;;;;;10.05;5.12;;;;;;;12.15;65.57;101306.47;5582783;31;32994;-56
2023/05/09 05:13:10;;;;;;;6.35;4.93;;;;;;;12.24;54.98;101304.84;5574446;31;33618;-56
2023/05/09 05:16:15;;;;;;;7.20;5.10;;;;;;;12.26;53.69;101313.47;5555433;32;33569;-56
2023/05/09 05:19:17;;;;;;;8.38;4.90;;;;;;;12.46;55.25;101312.66;5550295;32;31896;-56
2023/05/09 05:22:20;;;;;;;9.00;5.00;;;;;;;12.59;53.80;101304.06;5559056;32;34313;-55
2023/05/09 05:25:23;;;;;;;7.03;5.12;;;;;;;12.75;57.56;101312.91;5568933;32;33650;-56
2023/05/09 05:28:26;;;;;;;8.13;5.00;;;;;;;12.79;61.55;101311.28;5569186;31;33151;-55
2023/05/09 05:31:28;;;;;;;9.65;4.80;;;;;;;12.78;54.39;101311.53;5568479;32;34403;-56
2023/05/09 05:34:30;;;;;;;9.82;4.97;;;;;;;13.05;57.05;101312.03;5568917;32;33691;-56
2023/05/09 05:37:32;;;;;;;5.60;4.12;;;;;;;13.19;58.74;101314.94;5567493;32;34401;-56
2023/05/09 05:40:35;;;;;;;6.82;4.75;;;;;;;13.32;64.53;101305.50;5561543;31;33208;-56
2023/05/09 05:43:38;;;;;;;7.68;4.50;;;;;;;13.33;51.31;101299.03;5553344;32;34317;-56
2023/05/09 05:46:40;;;;;;;5.85;4.57;;;;;;;13.52;55.05;101300.03;5568840;32;34776;-56
2023/05/09 05:49:43;;;;;;;8.32;5.00;;;;;;;13.65;56.13;101305.91;5567713;32;33675;-56
2023/05/09 05:52:46;;;;;;;8.27;4.62;;;;;;;13.75;56.75;101301.25;5568397;32;34614;-57
2023/05/09 05:55:49;;;;;;;6.32;4.20;;;;;;;13.80;50.05;101306.59;5568043;31;33443;-56
2023/05/09 05:58:52;;;;;;;6.10;4.50;;;;;;;13.80;51.63;101303.91;5568556;32;31847;-57
2023/05/09 06:01:55;;;;;;;9.02;4.28;;;;;;;13.85;48.79;101303.06;5566544;31;33507;-56
2023/05/09 06:04:58;;;;;;;8.30;4.47;;;;;;;14.13;67.27;101312.31;5567569;31;33333;-57
2023/05/09 06:08:00;;;;;;;7.30;4.37;;;;;;;13.97;48.65;101300.03;5567642;31;34362;-55
2023/05/09 06:11:04;;;;;;;7.05;4.05;;;;;;;14.22;52.47;101307.94;5566707;31;33536;-56
2023/05/09 06:14:07;;;;;;;7.68;4.70;;;;;;;14.13;50.46;101303.41;5568374;32;33464;-57
2023/05/09 06:17:14;;;;;;;10.60;4.72;;;;;;;14.20;57.39;101310.09;5568652;32;33127;-57
2023/05/09 06:20:16;;;;;;;11.18;4.18;;;;;;;14.33;49.19;101312.16;5565309;32;33310;-56
2023/05/09 06:23:21;;;;;;;6.70;4.12;;;;;;;14.58;50.98;101313.06;5568727;32;33703;-56
2023/05/09 06:26:23;;;;;;;7.62;4.07;;;;;;;14.60;47.93;101312.75;5568302;32;34201;-56
2023/05/09 06:29:25;;;;;;;7.37;4.20;;;;;;;14.63;48.92;101304.09;5567167;32;33632;-58
2023/05/09 06:32:27;;;;;;;9.23;4.07;;;;;;;14.70;52.54;101296.47;5567538;32;33293;-57
2023/05/09 06:35:30;;;;;;;8.88;4.20;;;;;;;14.75;50.52;101297.22;5566277;32;33259;-56
2023/05/09 06:38:33;;;;;;;6.85;3.45;;;;;;;14.58;53.77;101294.16;5567681;32;34263;-56
2023/05/09 06:41:36;;;;;;;15.13;4.20;;;;;;;14.64;49.63;101300.34;5560109;32;33147;-57
2023/05/09 06:44:38;;;;;;;7.07;3.42;;;;;;;14.85;53.23;101299.03;5549210;32;33709;-56
2023/05/09 06:47:40;;;;;;;5.72;3.10;;;;;;;14.86;49.30;101291.72;5548984;32;33261;-57
2023/05/09 06:50:43;;;;;;;5.10;2.97;;;;;;;14.77;48.26;101292.38;5548761;32;33777;-56
2023/05/09 06:53:45;;;;;;;7.93;2.30;;;;;;;15.01;59.52;101280.78;5548769;32;33692;-57
2023/05/09 06:56:47;;;;;;;3.58;2.00;;;;;;;14.97;46.92;101283.25;5566478;32;33677;-55
2023/05/09 06:59:50;;;;;;;9.30;2.70;;;;;;;15.11;50.20;101283.34;5565112;32;34250;-56
2023/05/09 07:02:52;;;;;;;4.68;2.35;;;;;;;14.96;48.77;101281.63;5561904;32;33795;-56
2023/05/09 07:05:57;;;;;;;9.73;2.35;;;;;;;15.10;48.54;101268.25;5560585;32;33700;-56
2023/05/09 07:09:03;;;;;;;4.82;1.90;;;;;;;15.23;46.88;101272.94;5568475;32;33645;-57
2023/05/09 07:12:05;;;;;;;5.65;2.30;;;;;;;15.39;47.23;101276.22;5564834;32;34714;-56
2023/05/09 07:15:08;;;;;;;6.20;2.55;;;;;;;15.32;48.59;101270.38;5564582;32;33773;-58
2023/05/09 07:18:11;;;;;;;4.80;1.90;;;;;;;15.55;51.61;101270.63;5566884;32;32858;-56
2023/05/09 07:21:13;;;;;;;3.92;2.47;;;;;;;15.66;46.27;101263.97;5568091;32;34281;-56
2023/05/09 07:24:15;;;;;;;2.72;1.85;;;;;;;15.59;58.30;101258.94;5566979;32;33334;-56
2023/05/09 07:27:18;;;;;;;4.00;1.95;;;;;;;15.48;46.09;101260.97;5568170;32;33562;-56
2023/05/09 07:30:20;;;;;;;3.45;2.28;;;;;;;15.67;46.22;101255.62;5567744;32;33696;-56
2023/05/09 07:33:22;;;;;;;4.60;1.83;;;;;;;15.51;45.27;101251.50;5566997;32;33604;-57
2023/05/09 07:36:25;;;;;;;4.57;2.00;;;;;;;15.70;54.07;101252.34;5567482;32;34410;-57
2023/05/09 07:39:27;;;;;;;4.45;1.90;;;;;;;15.82;46.77;101243.75;5567613;32;33756;-56
2023/05/09 07:42:31;;;;;;;3.28;1.92;;;;;;;15.70;47.18;101244.22;5567127;32;33624;-56
2023/05/09 07:45:33;;;;;;;2.92;1.87;;;;;;;15.71;46.56;101245.03;5567891;32;34330;-56
2023/05/09 07:48:36;;;;;;;2.45;1.85;;;;;;;15.65;48.74;101241.56;5566901;32;33611;-57
2023/05/09 07:51:38;;;;;;;3.28;2.25;;;;;;;15.66;46.72;101227.00;5548283;32;33387;-56
2023/05/09 07:54:40;;;;;;;3.67;2.40;;;;;;;15.84;58.87;101238.06;5558407;32;33545;-56
2023/05/09 07:57:42;;;;;;;2.78;2.00;;;;;;;15.86;49.13;101227.75;5562094;32;34725;-57
2023/05/09 08:00:45;;;;;;;6.37;2.22;;;;;;;16.02;47.19;101222.91;5567389;32;34151;-56
2023/05/09 08:03:47;;;;;;;6.35;2.15;;;;;;;16.18;47.96;101218.84;5560066;32;33171;-57
2023/05/09 08:06:50;;;;;;;2.33;1.70;;;;;;;16.21;49.30;101216.34;5549213;32;33202;-56
2023/05/09 08:09:52;;;;;;;8.10;1.95;;;;;;;16.25;44.04;101219.25;5560975;31;33527;-56
2023/05/09 08:12:55;;;;;;;4.22;1.83;;;;;;;16.46;53.79;101214.28;5560656;32;33884;-60
2023/05/09 08:15:58;;;;;;;3.33;1.50;;;;;;;16.51;48.51;101207.97;5564682;32;32074;-59
2023/05/09 08:19:00;;;;;;;8.35;2.22;;;;;;;16.48;46.68;101208.56;5564859;32;34634;-59
2023/05/09 08:22:03;;;;;;;3.53;1.80;;;;;;;16.59;47.77;101194.56;5566986;32;33785;-59
2023/05/09 08:25:06;;;;;;;2.33;1.73;;;;;;;16.67;43.94;101201.16;5567364;32;33574;-59
2023/05/09 08:28:11;;;;;;;2.30;1.35;;;;;;;16.63;47.04;101184.72;5566912;32;34290;-58
2023/05/09 08:31:14;;;;;;;3.05;1.60;;;;;;;16.66;45.10;101197.66;5566814;32;33597;-59
2023/05/09 08:34:16;;;;;;;4.53;1.92;;;;;;;16.66;43.37;101189.53;5566659;32;34465;-59
2023/05/09 08:37:18;;;;;;;2.40;1.70;;;;;;;16.68;46.26;101187.31;5566931;32;34222;-59
2023/05/09 08:40:21;;;;;;;1.90;1.60;;;;;;;16.75;47.30;101189.66;5566475;32;33695;-59
2023/05/09 08:43:23;;;;;;;6.60;1.98;;;;;;;16.83;44.81;101193.56;5567039;32;33695;-59
2023/05/09 08:46:35;;;;;;;12.52;1.95;;;;;;;16.83;47.23;101188.16;5565958;32;34314;-59
2023/05/09 08:49:38;;;;;;;7.22;2.00;;;;;;;16.91;44.88;101193.66;5564788;32;34365;-59
2023/05/09 08:52:41;;;;;;;6.80;1.87;;;;;;;16.78;45.93;101190.94;5565605;32;34417;-59
2023/05/09 08:55:43;;;;;;;16.20;2.00;;;;;;;16.93;47.79;101187.16;5565191;32;33841;-58
2023/05/09 08:58:46;;;;;;;3.37;1.85;;;;;;;17.00;45.65;101190.25;5564577;32;33367;-59
2023/05/09 09:01:49;;;;;;;5.85;1.30;;;;;;;16.93;42.61;101179.81;5563655;32;33669;-59
2023/05/09 09:04:53;;;;;;;2.90;1.65;;;;;;;16.95;43.76;101180.28;5565398;31;32965;-59
2023/05/09 09:07:57;;;;;;;9.70;2.20;;;;;;;17.05;42.54;101179.28;5567130;32;33134;-59
2023/05/09 09:10:59;;;;;;;15.35;1.85;;;;;;;17.11;50.54;101173.44;5569271;32;34290;-59
2023/05/09 09:14:11;;;;;;;4.22;1.73;;;;;;;17.13;44.55;101165.81;5566713;32;34389;-59
2023/05/09 09:17:18;;;;;;;7.90;1.80;;;;;;;17.06;41.85;101164.66;5561533;32;33589;-58
2023/05/09 09:20:21;;;;;;;2.00;1.55;;;;;;;17.17;51.70;101166.00;5568112;32;33246;-59
2023/05/09 09:23:27;;;;;;;4.78;1.60;;;;;;;17.32;44.13;101165.69;5568832;32;33879;-58
2023/05/09 09:26:30;;;;;;;10.20;1.80;;;;;;;17.18;43.01;101154.06;5568886;32;33257;-59
2023/05/09 09:29:33;;;;;;;3.42;1.40;;;;;;;17.20;48.85;101157.28;5566225;32;33248;-60
2023/05/09 09:32:36;;;;;;;13.50;2.25;;;;;;;17.18;40.88;101162.19;5568589;32;34321;-59
2023/05/09 09:35:39;;;;;;;8.35;1.42;;;;;;;17.22;44.87;101162.37;5566302;32;34357;-59
2023/05/09 09:38:42;;;;;;;9.27;1.50;;;;;;;17.47;44.33;101156.38;5559140;32;33744;-59
2023/05/09 09:41:45;;;;;;;12.15;2.08;;;;;;;17.47;40.88;101161.78;5569246;32;34236;-58
2023/05/09 09:44:55;;;;;;;34.90;3.33;;;;;;;17.56;44.76;101161.88;5564139;32;33450;-59
2023/05/09 09:47:57;;;;;;;3.85;1.20;;;;;;;17.45;40.07;101161.31;5558023;32;33903;-59
2023/05/09 09:51:09;;;;;;;3.45;1.40;;;;;;;17.33;40.89;101156.44;5568666;32;33632;-59
2023/05/09 09:54:12;;;;;;;3.42;1.37;;;;;;;17.38;46.31;101159.03;5552127;32;33670;-59
2023/05/09 09:57:32;;;;;;;4.40;1.40;;;;;;;17.42;45.95;101155.69;5558299;32;34333;-58
2023/05/09 10:00:35;;;;;;;3.97;1.35;;;;;;;17.49;45.21;101151.47;5562188;32;33721;-59
2023/05/09 10:03:41;;;;;;;1.75;1.55;;;;;;;17.49;42.89;101148.75;5552075;32;33412;-59
2023/05/09 10:07:04;;;;;;;3.65;1.50;;;;;;;17.62;44.21;101141.66;5567663;32;33171;-59
2023/05/09 10:10:07;;;;;;;1.60;1.42;;;;;;;17.70;45.03;101138.19;5569166;31;33659;-59
2023/05/09 10:13:11;;;;;;;4.05;1.50;;;;;;;17.69;45.54;101138.53;5554563;32;34009;-59
2023/05/09 10:16:13;;;;;;;6.28;1.80;;;;;;;17.70;45.26;101140.91;5552820;32;33605;-56
2023/05/09 10:19:18;;;;;;;4.90;1.62;;;;;;;17.63;42.95;101127.00;5568217;32;34260;-57
2023/05/09 10:22:22;;;;;;;3.30;1.60;;;;;;;17.62;40.88;101139.75;5564752;32;33107;-57
2023/05/09 10:25:32;;;;;;;5.07;1.55;;;;;;;17.64;41.88;101131.28;5559053;32;33668;-57
2023/05/09 10:28:39;;;;;;;3.25;1.73;;;;;;;17.79;46.20;101122.81;5554711;32;33666;-56
2023/05/09 10:31:43;;;;;;;6.95;1.90;;;;;;;17.66;41.56;101120.94;5568573;32;33761;-57
2023/05/09 10:34:51;;;;;;;2.10;1.40;;;;;;;17.64;43.54;101122.38;5558380;32;33571;-57
2023/05/09 10:37:58;;;;;;;4.95;1.70;;;;;;;17.60;41.38;101117.56;5553386;32;32404;-56
2023/05/09 10:41:01;;;;;;;7.43;1.50;;;;;;;17.59;43.42;101120.59;5560688;32;33674;-57
2023/05/09 10:44:03;;;;;;;5.72;1.60;;;;;;;17.49;41.52;101118.94;5552918;32;33668;-56
2023/05/09 10:47:06;;;;;;;6.82;1.62;;;;;;;17.54;41.79;101110.66;5563201;32;33609;-56
2023/05/09 10:50:12;;;;;;;1.98;1.33;;;;;;;17.70;42.41;101115.72;5562490;32;33334;-56
2023/05/09 10:53:15;;;;;;;3.83;1.40;;;;;;;17.74;42.52;101122.09;5564692;32;34417;-56
2023/05/09 10:56:37;;;;;;;4.80;1.70;;;;;;;17.71;41.83;101111.87;5566019;32;33607;-56
2023/05/09 10:59:41;;;;;;;3.08;1.75;;;;;;;17.60;42.99;101114.06;5559845;32;34299;-57
2023/05/09 11:03:06;;;;;;;3.15;1.60;;;;;;;17.61;43.31;101107.50;5562731;32;33628;-56
2023/05/09 11:06:51;;;;;;;2.90;1.50;;;;;;;17.69;41.52;101114.13;5558046;32;33558;-56
2023/05/09 11:10:13;;;;;;;4.80;1.50;;;;;;;17.81;40.85;101109.75;5566375;31;33834;-56
2023/05/09 11:13:24;;;;;;;5.03;1.60;;;;;;;17.85;42.31;101101.78;5563005;32;33651;-56
2023/05/09 11:16:27;;;;;;;3.72;1.73;;;;;;;17.89;40.11;101110.91;5552581;32;33598;-57
2023/05/09 11:19:52;;;;;;;6.90;1.90;;;;;;;17.73;40.41;101090.69;5568173;32;33784;-57
2023/05/09 11:22:56;;;;;;;1.92;1.30;;;;;;;17.80;43.54;101099.19;5561296;31;33186;-56
2023/05/09 11:26:07;;;;;;;2.08;1.67;;;;;;;17.91;43.15;101083.44;5559382;32;33614;-57
2023/05/09 11:29:09;;;;;;;2.97;1.60;;;;;;;18.10;42.68;101083.22;5549083;32;33937;-56
2023/05/09 11:32:14;;;;;;;2.80;1.80;;;;;;;17.89;42.45;101081.06;5565114;32;33706;-56
2023/05/09 11:35:20;;;;;;;3.95;1.50;;;;;;;17.78;40.67;101083.25;5567833;32;34524;-56
2023/05/09 11:38:22;;;;;;;4.37;1.63;;;;;;;17.79;38.52;101081.34;5567299;32;34431;-56
2023/05/09 11:41:26;;;;;;;3.47;1.67;;;;;;;17.94;46.20;101080.13;5566367;32;34412;-56
2023/05/09 11:44:32;;;;;;;2.70;2.00;;;;;;;17.98;40.88;101083.81;5567704;32;34419;-56
2023/05/09 11:47:36;;;;;;;2.55;1.50;;;;;;;18.03;41.23;101068.19;5567515;32;33789;-56
2023/05/09 11:50:40;;;;;;;3.55;1.65;;;;;;;17.96;40.80;101073.28;5564265;32;33597;-56
2023/05/09 11:53:45;;;;;;;2.72;1.80;;;;;;;17.94;41.02;101077.41;5565774;32;34349;-57
2023/05/09 11:56:48;;;;;;;2.65;1.60;;;;;;;18.01;41.51;101075.88;5565236;32;33685;-56
2023/05/09 11:59:50;;;;;;;3.15;1.83;;;;;;;18.01;40.31;101072.31;5566888;32;33822;-56
2023/05/09 12:02:53;;;;;;;3.30;1.55;;;;;;;18.03;41.84;101064.69;5567921;32;33922;-56
2023/05/09 12:05:55;;;;;;;2.97;1.17;;;;;;;18.12;42.95;101060.09;5567597;32;34479;-57
2023/05/09 12:08:58;;;;;;;2.78;1.60;;;;;;;18.02;38.42;101054.97;5568219;32;33572;-57
2023/05/09 12:12:00;;;;;;;2.47;1.77;;;;;;;18.10;40.41;101048.75;5567863;32;33658;-56
2023/05/09 12:15:06;;;;;;;2.33;1.73;;;;;;;18.25;44.90;101048.31;5567714;32;34379;-56
2023/05/09 12:18:08;;;;;;;2.90;1.67;;;;;;;18.19;41.47;101046.06;5555179;32;34381;-56
2023/05/09 12:21:11;;;;;;;5.25;1.62;;;;;;;18.08;39.34;101032.00;5548797;32;33613;-57
2023/05/09 12:24:19;;;;;;;2.80;1.58;;;;;;;18.20;41.40;101047.66;5548392;32;33579;-57
2023/05/09 12:27:22;;;;;;;3.25;1.62;;;;;;;18.16;38.67;101049.41;5552223;32;33761;-57
2023/05/09 12:30:25;;;;;;;6.57;1.58;;;;;;;18.11;42.82;101039.47;5556715;32;34288;-56
2023/05/09 12:33:28;;;;;;;1.67;1.55;;;;;;;18.12;46.75;101030.25;5570523;32;33835;-56
2023/05/09 12:36:34;;;;;;;8.50;1.50;;;;;;;18.14;44.62;101024.50;5570532;32;33559;-57
2023/05/09 12:39:36;;;;;;;3.97;1.60;;;;;;;18.24;49.48;101029.63;5557770;32;33791;-56
2023/05/09 12:42:43;;;;;;;4.18;1.60;;;;;;;18.39;41.25;101025.69;5559406;32;33573;-56
2023/05/09 12:45:51;;;;;;;2.35;1.60;;;;;;;18.42;42.47;101022.34;5552734;32;34335;-57
2023/05/09 12:48:54;;;;;;;2.35;1.37;;;;;;;18.36;44.25;101023.59;5550551;32;34354;-56
2023/05/09 12:51:59;;;;;;;2.95;1.90;;;;;;;18.34;41.74;101012.25;5551089;32;33302;-56
2023/05/09 12:55:13;;;;;;;2.22;1.50;;;;;;;18.29;41.74;101010.50;5551018;32;33723;-57
2023/05/09 12:58:16;;;;;;;1.45;1.35;;;;;;;18.34;44.61;101004.09;5551063;32;34361;-57
2023/05/09 13:01:20;;;;;;;2.95;1.50;;;;;;;18.26;38.58;101011.91;5550641;32;33763;-57
2023/05/09 13:04:24;;;;;;;2.70;1.75;;;;;;;18.19;40.77;100997.22;5550579;32;33825;-57
2023/05/09 13:07:26;;;;;;;2.72;1.50;;;;;;;18.11;40.32;100989.84;5550543;32;33593;-56
2023/05/09 13:10:29;;;;;;;2.80;1.77;;;;;;;18.17;42.66;100994.81;5550817;32;33689;-57
2023/05/09 13:13:31;;;;;;;6.35;1.95;;;;;;;18.20;41.58;100999.59;5555134;32;33760;-56
2023/05/09 13:16:34;;;;;;;4.40;1.48;;;;;;;18.29;45.43;100991.50;5570322;32;33741;-56
2023/05/09 13:19:39;;;;;;;7.07;2.10;;;;;;;18.30;40.94;100980.31;5570237;32;34393;-57
2023/05/09 13:22:44;;;;;;;9.07;1.80;;;;;;;18.34;44.49;100979.69;5570374;32;33401;-56
2023/05/09 13:25:47;;;;;;;4.93;1.75;;;;;;;18.38;44.87;100977.94;5570116;32;34266;-57
2023/05/09 13:28:49;;;;;;;3.78;1.83;;;;;;;18.59;44.80;100969.97;5569665;32;33783;-57
2023/05/09 13:31:51;;;;;;;5.78;1.95;;;;;;;18.74;43.57;100964.88;5569758;32;33515;-56
2023/05/09 13:34:54;;;;;;;4.28;1.75;;;;;;;18.97;48.39;100968.22;5569547;32;34275;-56
2023/05/09 13:37:57;;;;;;;3.15;1.33;;;;;;;18.95;41.02;100965.00;5569552;32;34068;-57
2023/05/09 13:40:59;;;;;;;6.18;1.75;;;;;;;19.08;38.37;100965.94;5569145;32;33620;-57
2023/05/09 13:44:03;;;;;;;2.00;1.40;;;;;;;19.05;38.62;100949.50;5563345;32;33700;-57
2023/05/09 13:47:06;;;;;;;3.30;1.50;;;;;;;19.04;39.00;100962.28;5549767;32;33606;-57
2023/05/09 13:50:09;;;;;;;3.53;2.03;;;;;;;19.17;39.92;100955.03;5550168;32;34290;-57
2023/05/09 13:53:14;;;;;;;5.78;1.60;;;;;;;19.14;38.71;100947.53;5549302;32;33259;-57
2023/05/09 13:56:16;;;;;;;4.60;1.35;;;;;;;19.11;45.07;100948.19;5549234;32;34406;-57
2023/05/09 13:59:18;;;;;;;3.33;1.67;;;;;;;19.18;38.72;100935.69;5549308;32;33783;-57
2023/05/09 14:02:23;;;;;;;3.72;1.60;;;;;;;19.21;38.16;100940.50;5549981;32;33765;-58
2023/05/09 14:05:25;;;;;;;3.22;1.23;;;;;;;19.19;40.67;100934.56;5550064;32;33479;-56
2023/05/09 14:08:28;;;;;;;6.20;1.70;;;;;;;19.04;42.68;100929.69;5549050;32;34422;-57
2023/05/09 14:11:30;;;;;;;4.12;1.60;;;;;;;18.90;41.19;100923.62;5549936;32;33614;-57
2023/05/09 14:14:33;;;;;;;6.72;1.85;;;;;;;18.78;39.90;100924.28;5550296;32;33690;-56
2023/05/09 14:17:35;;;;;;;8.98;1.87;;;;;;;18.76;43.33;100930.03;5549901;32;33728;-57
2023/05/09 14:20:39;;;;;;;3.90;1.30;;;;;;;18.70;39.67;100925.84;5550119;32;33668;-57
2023/05/09 14:23:42;;;;;;;3.05;1.37;;;;;;;18.77;41.21;100928.94;5550093;32;34288;-56
2023/05/09 14:26:45;;;;;;;3.80;1.50;;;;;;;18.69;44.01;100924.25;5549107;32;34541;-57
2023/05/09 14:29:48;;;;;;;1.80;1.27;;;;;;;18.60;40.22;100918.03;5549673;32;33630;-56
2023/05/09 14:32:50;;;;;;;3.35;1.40;;;;;;;18.67;39.62;100906.69;5549882;32;33432;-57
2023/05/09 14:35:52;;;;;;;4.20;1.60;;;;;;;18.80;42.68;100907.66;5549802;32;34404;-57
2023/05/09 14:38:54;;;;;;;3.28;1.60;;;;;;;18.93;40.04;100906.66;5548596;32;33804;-58
2023/05/09 14:41:57;;;;;;;3.40;1.60;;;;;;;18.98;40.70;100906.50;5549721;32;33238;-57
2023/05/09 14:44:59;;;;;;;3.87;1.55;;;;;;;18.97;42.74;100907.63;5549313;32;34236;-57
2023/05/09 14:48:04;;;;;;;25.17;3.25;;;;;;;18.85;39.89;100905.59;5548358;32;33625;-57
2023/05/09 14:51:07;;;;;;;7.30;1.57;;;;;;;18.87;44.30;100908.75;5549344;32;33599;-57
2023/05/09 14:54:09;;;;;;;12.18;1.70;;;;;;;18.71;40.65;100902.22;5549542;32;33632;-58
2023/05/09 14:57:12;;;;;;;4.95;1.58;;;;;;;18.59;41.73;100899.38;5549323;32;33878;-58
2023/05/09 15:00:15;;;;;;;4.47;1.60;;;;;;;18.53;42.54;100893.28;5549091;32;33742;-57
2023/05/09 15:03:23;;;;;;;3.78;1.30;;;;;;;18.65;45.08;100898.09;5549309;32;33893;-58
2023/05/09 15:06:25;;;;;;;2.42;1.70;;;;;;;18.67;48.95;100887.69;5549307;32;34464;-58
2023/05/09 15:09:27;;;;;;;5.55;1.87;;;;;;;18.74;40.97;100896.16;5549403;32;33611;-58
2023/05/09 15:12:30;;;;;;;10.25;1.52;;;;;;;18.83;44.80;100888.78;5548210;32;33666;-57
2023/05/09 15:15:32;;;;;;;6.45;1.70;;;;;;;18.85;41.26;100880.34;5548233;32;33745;-57
2023/05/09 15:18:35;;;;;;;2.78;1.33;;;;;;;18.78;39.96;100881.63;5559696;32;34284;-57
2023/05/09 15:21:37;;;;;;;3.75;1.65;;;;;;;18.81;46.41;100872.03;5568314;32;33777;-57
2023/05/09 15:24:41;;;;;;;2.53;1.27;;;;;;;18.89;44.37;100886.72;5568945;32;33593;-57
2023/05/09 15:27:43;;;;;;;4.70;1.40;;;;;;;18.86;42.28;100871.06;5567660;32;34456;-57
2023/05/09 15:30:47;;;;;;;1.98;1.40;;;;;;;18.84;43.35;100867.84;5568965;32;33663;-57
